sensor_id;sensor_type;location;lat;lon;timestamp;P1;durP1;ratioP1;P2;durP2;ratioP2
58516;SDS011;44308;50.810;0.284;2022-07-23T00:02:06;8.98;;;3.95;;
58516;SDS011;44308;50.810;0.284;2022-07-23T00:04:32;12.20;;;4.10;;
58516;SDS011;44308;50.810;0.284;2022-07-23T00:06:59;8.82;;;4.20;;
58516;SDS011;44308;50.810;0.284;2022-07-23T00:09:25;5.47;;;3.97;;
58516;SDS011;44308;50.810;0.284;2022-07-23T00:11:51;7.20;;;4.40;;
58516;SDS011;44308;50.810;0.284;2022-07-23T00:14:17;8.80;;;4.97;;
58516;SDS011;44308;50.810;0.284;2022-07-23T00:16:43;8.27;;;4.03;;
58516;SDS011;44308;50.810;0.284;2022-07-23T00:19:09;8.60;;;3.85;;
58516;SDS011;44308;50.810;0.284;2022-07-23T00:21:34;6.22;;;4.30;;
58516;SDS011;44308;50.810;0.284;2022-07-23T00:24:00;7.43;;;4.10;;
58516;SDS011;44308;50.810;0.284;2022-07-23T00:26:26;5.38;;;4.50;;
58516;SDS011;44308;50.810;0.284;2022-07-23T00:28:52;8.32;;;4.50;;
58516;SDS011;44308;50.810;0.284;2022-07-23T00:31:17;4.95;;;3.90;;
58516;SDS011;44308;50.810;0.284;2022-07-23T00:33:43;7.68;;;4.78;;
58516;SDS011;44308;50.810;0.284;2022-07-23T00:36:09;8.18;;;4.18;;
58516;SDS011;44308;50.810;0.284;2022-07-23T00:38:37;8.63;;;4.57;;
58516;SDS011;44308;50.810;0.284;2022-07-23T00:41:02;9.18;;;4.55;;
58516;SDS011;44308;50.810;0.284;2022-07-23T00:43:28;6.90;;;4.72;;
58516;SDS011;44308;50.810;0.284;2022-07-23T00:45:54;5.95;;;4.38;;
58516;SDS011;44308;50.810;0.284;2022-07-23T00:48:20;5.50;;;3.92;;
58516;SDS011;44308;50.810;0.284;2022-07-23T00:50:46;7.45;;;4.25;;
58516;SDS011;44308;50.810;0.284;2022-07-23T00:53:12;7.82;;;4.75;;
58516;SDS011;44308;50.810;0.284;2022-07-23T00:55:38;12.50;;;5.03;;
58516;SDS011;44308;50.810;0.284;2022-07-23T00:58:04;14.35;;;5.03;;
58516;SDS011;44308;50.810;0.284;2022-07-23T01:00:31;9.02;;;4.43;;
58516;SDS011;44308;50.810;0.284;2022-07-23T01:02:56;10.10;;;5.35;;
58516;SDS011;44308;50.810;0.284;2022-07-23T01:05:22;12.15;;;5.50;;
58516;SDS011;44308;50.810;0.284;2022-07-23T01:07:51;6.00;;;4.70;;
58516;SDS011;44308;50.810;0.284;2022-07-23T01:10:17;11.85;;;5.18;;
58516;SDS011;44308;50.810;0.284;2022-07-23T01:13:07;9.55;;;5.10;;
58516;SDS011;44308;50.810;0.284;2022-07-23T01:15:35;12.82;;;5.43;;
58516;SDS011;44308;50.810;0.284;2022-07-23T01:18:05;7.70;;;4.47;;
58516;SDS011;44308;50.810;0.284;2022-07-23T01:20:33;8.05;;;4.85;;
58516;SDS011;44308;50.810;0.284;2022-07-23T01:22:59;8.75;;;4.15;;
58516;SDS011;44308;50.810;0.284;2022-07-23T01:25:25;4.50;;;3.78;;
58516;SDS011;44308;50.810;0.284;2022-07-23T01:27:52;20.98;;;4.97;;
58516;SDS011;44308;50.810;0.284;2022-07-23T01:30:19;7.30;;;4.18;;
58516;SDS011;44308;50.810;0.284;2022-07-23T01:32:45;7.95;;;4.07;;
58516;SDS011;44308;50.810;0.284;2022-07-23T01:35:14;9.57;;;4.50;;
58516;SDS011;44308;50.810;0.284;2022-07-23T01:37:40;5.07;;;4.28;;
58516;SDS011;44308;50.810;0.284;2022-07-23T01:40:06;7.13;;;4.97;;
58516;SDS011;44308;50.810;0.284;2022-07-23T01:42:33;10.52;;;4.93;;
58516;SDS011;44308;50.810;0.284;2022-07-23T01:44:58;4.53;;;3.92;;
58516;SDS011;44308;50.810;0.284;2022-07-23T01:47:24;5.97;;;4.40;;
58516;SDS011;44308;50.810;0.284;2022-07-23T01:49:51;5.22;;;4.65;;
58516;SDS011;44308;50.810;0.284;2022-07-23T01:52:17;8.27;;;5.10;;
58516;SDS011;44308;50.810;0.284;2022-07-23T01:54:42;10.88;;;4.80;;
58516;SDS011;44308;50.810;0.284;2022-07-23T01:57:08;10.98;;;5.53;;
58516;SDS011;44308;50.810;0.284;2022-07-23T01:59:34;8.45;;;5.30;;
58516;SDS011;44308;50.810;0.284;2022-07-23T02:02:01;11.40;;;5.85;;
58516;SDS011;44308;50.810;0.284;2022-07-23T02:04:28;8.55;;;6.10;;
58516;SDS011;44308;50.810;0.284;2022-07-23T02:06:55;8.40;;;5.65;;
58516;SDS011;44308;50.810;0.284;2022-07-23T02:09:21;10.55;;;5.70;;
58516;SDS011;44308;50.810;0.284;2022-07-23T02:11:47;7.38;;;5.97;;
58516;SDS011;44308;50.810;0.284;2022-07-23T02:14:13;17.95;;;6.30;;
58516;SDS011;44308;50.810;0.284;2022-07-23T02:16:39;15.93;;;6.50;;
58516;SDS011;44308;50.810;0.284;2022-07-23T02:21:34;11.93;;;6.05;;
58516;SDS011;44308;50.810;0.284;2022-07-23T02:24:00;8.25;;;6.18;;
58516;SDS011;44308;50.810;0.284;2022-07-23T02:26:26;12.70;;;6.90;;
58516;SDS011;44308;50.810;0.284;2022-07-23T02:28:53;11.95;;;7.45;;
58516;SDS011;44308;50.810;0.284;2022-07-23T02:31:19;8.48;;;6.53;;
58516;SDS011;44308;50.810;0.284;2022-07-23T02:33:45;6.70;;;5.90;;
58516;SDS011;44308;50.810;0.284;2022-07-23T02:36:11;10.48;;;6.40;;
58516;SDS011;44308;50.810;0.284;2022-07-23T02:38:38;18.88;;;7.60;;
58516;SDS011;44308;50.810;0.284;2022-07-23T02:41:04;11.55;;;7.05;;
58516;SDS011;44308;50.810;0.284;2022-07-23T02:43:29;9.73;;;6.25;;
58516;SDS011;44308;50.810;0.284;2022-07-23T02:45:55;14.18;;;6.28;;
58516;SDS011;44308;50.810;0.284;2022-07-23T02:48:23;11.68;;;6.70;;
58516;SDS011;44308;50.810;0.284;2022-07-23T02:50:49;9.35;;;5.65;;
58516;SDS011;44308;50.810;0.284;2022-07-23T02:53:14;8.68;;;6.25;;
58516;SDS011;44308;50.810;0.284;2022-07-23T02:55:40;16.45;;;6.82;;
58516;SDS011;44308;50.810;0.284;2022-07-23T02:58:06;9.13;;;6.28;;
58516;SDS011;44308;50.810;0.284;2022-07-23T03:00:32;16.50;;;6.57;;
58516;SDS011;44308;50.810;0.284;2022-07-23T03:02:57;13.18;;;6.78;;
58516;SDS011;44308;50.810;0.284;2022-07-23T03:05:26;8.25;;;6.32;;
58516;SDS011;44308;50.810;0.284;2022-07-23T03:07:54;8.35;;;6.65;;
58516;SDS011;44308;50.810;0.284;2022-07-23T03:10:20;10.45;;;6.88;;
58516;SDS011;44308;50.810;0.284;2022-07-23T03:12:45;13.07;;;7.80;;
58516;SDS011;44308;50.810;0.284;2022-07-23T03:15:11;12.85;;;7.28;;
58516;SDS011;44308;50.810;0.284;2022-07-23T03:17:37;12.35;;;7.82;;
58516;SDS011;44308;50.810;0.284;2022-07-23T03:20:03;9.82;;;7.10;;
58516;SDS011;44308;50.810;0.284;2022-07-23T03:22:29;8.45;;;6.70;;
58516;SDS011;44308;50.810;0.284;2022-07-23T03:24:55;13.88;;;6.82;;
58516;SDS011;44308;50.810;0.284;2022-07-23T03:27:21;11.45;;;6.40;;
58516;SDS011;44308;50.810;0.284;2022-07-23T03:29:54;12.10;;;6.78;;
58516;SDS011;44308;50.810;0.284;2022-07-23T03:32:22;12.95;;;7.40;;
58516;SDS011;44308;50.810;0.284;2022-07-23T03:34:49;16.15;;;6.60;;
58516;SDS011;44308;50.810;0.284;2022-07-23T03:37:16;12.27;;;6.75;;
58516;SDS011;44308;50.810;0.284;2022-07-23T03:39:42;9.88;;;6.68;;
58516;SDS011;44308;50.810;0.284;2022-07-23T03:42:09;8.65;;;5.60;;
58516;SDS011;44308;50.810;0.284;2022-07-23T03:44:35;9.65;;;6.03;;
58516;SDS011;44308;50.810;0.284;2022-07-23T03:50:45;10.05;;;6.25;;
58516;SDS011;44308;50.810;0.284;2022-07-23T03:53:10;9.23;;;5.95;;
58516;SDS011;44308;50.810;0.284;2022-07-23T03:55:36;12.52;;;5.70;;
58516;SDS011;44308;50.810;0.284;2022-07-23T03:58:02;10.20;;;5.97;;
58516;SDS011;44308;50.810;0.284;2022-07-23T04:00:27;9.13;;;6.18;;
58516;SDS011;44308;50.810;0.284;2022-07-23T04:02:53;9.10;;;5.85;;
58516;SDS011;44308;50.810;0.284;2022-07-23T04:05:19;11.48;;;5.50;;
58516;SDS011;44308;50.810;0.284;2022-07-23T04:07:45;15.68;;;5.32;;
58516;SDS011;44308;50.810;0.284;2022-07-23T04:10:11;8.95;;;5.63;;
58516;SDS011;44308;50.810;0.284;2022-07-23T04:12:36;7.50;;;5.97;;
58516;SDS011;44308;50.810;0.284;2022-07-23T04:15:02;9.60;;;5.70;;
58516;SDS011;44308;50.810;0.284;2022-07-23T04:17:29;9.35;;;5.80;;
58516;SDS011;44308;50.810;0.284;2022-07-23T04:19:55;8.68;;;5.95;;
58516;SDS011;44308;50.810;0.284;2022-07-23T04:22:21;15.93;;;6.55;;
58516;SDS011;44308;50.810;0.284;2022-07-23T04:24:47;10.02;;;5.68;;
58516;SDS011;44308;50.810;0.284;2022-07-23T04:27:15;15.02;;;6.60;;
58516;SDS011;44308;50.810;0.284;2022-07-23T04:29:41;9.32;;;5.63;;
58516;SDS011;44308;50.810;0.284;2022-07-23T04:32:07;8.77;;;5.57;;
58516;SDS011;44308;50.810;0.284;2022-07-23T04:34:33;11.00;;;6.43;;
58516;SDS011;44308;50.810;0.284;2022-07-23T04:37:00;7.93;;;5.63;;
58516;SDS011;44308;50.810;0.284;2022-07-23T04:39:26;9.25;;;6.00;;
58516;SDS011;44308;50.810;0.284;2022-07-23T04:41:52;7.20;;;6.15;;
58516;SDS011;44308;50.810;0.284;2022-07-23T04:44:17;11.77;;;5.72;;
58516;SDS011;44308;50.810;0.284;2022-07-23T04:46:43;7.78;;;5.45;;
58516;SDS011;44308;50.810;0.284;2022-07-23T04:49:09;7.82;;;5.55;;
58516;SDS011;44308;50.810;0.284;2022-07-23T04:51:35;10.02;;;6.57;;
58516;SDS011;44308;50.810;0.284;2022-07-23T04:54:01;15.52;;;6.38;;
58516;SDS011;44308;50.810;0.284;2022-07-23T04:56:26;19.02;;;5.35;;
58516;SDS011;44308;50.810;0.284;2022-07-23T04:58:53;8.00;;;5.85;;
58516;SDS011;44308;50.810;0.284;2022-07-23T05:01:19;7.32;;;5.55;;
58516;SDS011;44308;50.810;0.284;2022-07-23T05:03:45;8.98;;;5.50;;
58516;SDS011;44308;50.810;0.284;2022-07-23T05:06:13;13.00;;;5.40;;
58516;SDS011;44308;50.810;0.284;2022-07-23T05:08:39;7.53;;;6.07;;
58516;SDS011;44308;50.810;0.284;2022-07-23T05:11:05;6.13;;;5.38;;
58516;SDS011;44308;50.810;0.284;2022-07-23T05:13:31;12.98;;;5.53;;
58516;SDS011;44308;50.810;0.284;2022-07-23T05:15:56;9.23;;;6.40;;
58516;SDS011;44308;50.810;0.284;2022-07-23T05:18:22;8.27;;;6.55;;
58516;SDS011;44308;50.810;0.284;2022-07-23T05:20:48;13.57;;;5.82;;
58516;SDS011;44308;50.810;0.284;2022-07-23T05:23:14;10.02;;;5.50;;
58516;SDS011;44308;50.810;0.284;2022-07-23T05:25:40;11.93;;;5.65;;
58516;SDS011;44308;50.810;0.284;2022-07-23T05:28:05;8.52;;;5.45;;
58516;SDS011;44308;50.810;0.284;2022-07-23T05:30:31;9.20;;;6.30;;
58516;SDS011;44308;50.810;0.284;2022-07-23T05:32:57;9.60;;;6.30;;
58516;SDS011;44308;50.810;0.284;2022-07-23T05:35:23;9.18;;;5.93;;
58516;SDS011;44308;50.810;0.284;2022-07-23T05:40:34;11.20;;;5.63;;
58516;SDS011;44308;50.810;0.284;2022-07-23T05:43:00;6.80;;;5.95;;
58516;SDS011;44308;50.810;0.284;2022-07-23T05:45:26;7.68;;;5.72;;
58516;SDS011;44308;50.810;0.284;2022-07-23T05:47:58;13.82;;;5.70;;
58516;SDS011;44308;50.810;0.284;2022-07-23T05:50:24;7.93;;;5.22;;
58516;SDS011;44308;50.810;0.284;2022-07-23T05:52:50;6.38;;;5.63;;
58516;SDS011;44308;50.810;0.284;2022-07-23T05:55:15;14.38;;;6.05;;
58516;SDS011;44308;50.810;0.284;2022-07-23T05:57:41;5.20;;;4.70;;
58516;SDS011;44308;50.810;0.284;2022-07-23T06:00:08;12.35;;;5.57;;
58516;SDS011;44308;50.810;0.284;2022-07-23T06:02:35;9.55;;;5.85;;
58516;SDS011;44308;50.810;0.284;2022-07-23T06:05:02;8.77;;;5.28;;
58516;SDS011;44308;50.810;0.284;2022-07-23T06:07:28;11.02;;;4.78;;
58516;SDS011;44308;50.810;0.284;2022-07-23T06:09:54;10.88;;;5.10;;
58516;SDS011;44308;50.810;0.284;2022-07-23T06:12:19;12.75;;;5.80;;
58516;SDS011;44308;50.810;0.284;2022-07-23T06:14:49;15.93;;;5.55;;
58516;SDS011;44308;50.810;0.284;2022-07-23T06:17:17;6.18;;;5.35;;
58516;SDS011;44308;50.810;0.284;2022-07-23T06:19:43;8.45;;;5.10;;
58516;SDS011;44308;50.810;0.284;2022-07-23T06:22:09;18.73;;;5.43;;
58516;SDS011;44308;50.810;0.284;2022-07-23T06:24:35;6.50;;;4.63;;
58516;SDS011;44308;50.810;0.284;2022-07-23T06:27:01;11.25;;;5.03;;
58516;SDS011;44308;50.810;0.284;2022-07-23T06:29:26;8.30;;;4.32;;
58516;SDS011;44308;50.810;0.284;2022-07-23T06:31:52;7.47;;;4.63;;
58516;SDS011;44308;50.810;0.284;2022-07-23T06:34:18;9.77;;;4.00;;
58516;SDS011;44308;50.810;0.284;2022-07-23T06:40:25;9.70;;;3.58;;
58516;SDS011;44308;50.810;0.284;2022-07-23T06:42:51;13.68;;;3.85;;
58516;SDS011;44308;50.810;0.284;2022-07-23T06:45:16;6.47;;;3.25;;
58516;SDS011;44308;50.810;0.284;2022-07-23T06:47:43;12.90;;;4.07;;
58516;SDS011;44308;50.810;0.284;2022-07-23T06:50:09;10.63;;;5.15;;
58516;SDS011;44308;50.810;0.284;2022-07-23T06:52:35;5.13;;;3.25;;
58516;SDS011;44308;50.810;0.284;2022-07-23T06:55:01;14.38;;;4.22;;
58516;SDS011;44308;50.810;0.284;2022-07-23T06:57:28;16.00;;;9.45;;
58516;SDS011;44308;50.810;0.284;2022-07-23T06:59:54;21.60;;;9.98;;
58516;SDS011;44308;50.810;0.284;2022-07-23T07:02:19;22.98;;;15.98;;
58516;SDS011;44308;50.810;0.284;2022-07-23T07:04:45;22.40;;;13.48;;
58516;SDS011;44308;50.810;0.284;2022-07-23T07:07:11;13.35;;;7.72;;
58516;SDS011;44308;50.810;0.284;2022-07-23T07:09:37;16.20;;;7.50;;
58516;SDS011;44308;50.810;0.284;2022-07-23T07:12:03;5.45;;;3.05;;
58516;SDS011;44308;50.810;0.284;2022-07-23T07:14:29;15.32;;;10.77;;
58516;SDS011;44308;50.810;0.284;2022-07-23T07:16:55;12.05;;;8.55;;
58516;SDS011;44308;50.810;0.284;2022-07-23T07:19:21;15.18;;;6.35;;
58516;SDS011;44308;50.810;0.284;2022-07-23T07:21:47;6.45;;;3.92;;
58516;SDS011;44308;50.810;0.284;2022-07-23T07:24:12;8.80;;;4.07;;
58516;SDS011;44308;50.810;0.284;2022-07-23T07:26:38;23.83;;;9.23;;
58516;SDS011;44308;50.810;0.284;2022-07-23T07:29:05;8.63;;;4.72;;
58516;SDS011;44308;50.810;0.284;2022-07-23T07:31:31;11.65;;;6.05;;
58516;SDS011;44308;50.810;0.284;2022-07-23T07:33:57;7.40;;;3.80;;
58516;SDS011;44308;50.810;0.284;2022-07-23T07:36:23;9.32;;;4.78;;
58516;SDS011;44308;50.810;0.284;2022-07-23T07:38:49;11.50;;;7.05;;
58516;SDS011;44308;50.810;0.284;2022-07-23T07:41:15;16.42;;;9.02;;
58516;SDS011;44308;50.810;0.284;2022-07-23T07:43:41;6.22;;;3.63;;
58516;SDS011;44308;50.810;0.284;2022-07-23T07:46:07;9.52;;;4.57;;
58516;SDS011;44308;50.810;0.284;2022-07-23T07:48:39;20.88;;;8.18;;
58516;SDS011;44308;50.810;0.284;2022-07-23T07:51:04;12.57;;;7.25;;
58516;SDS011;44308;50.810;0.284;2022-07-23T07:53:30;26.15;;;9.07;;
58516;SDS011;44308;50.810;0.284;2022-07-23T07:55:56;22.35;;;8.98;;
58516;SDS011;44308;50.810;0.284;2022-07-23T07:58:23;9.20;;;3.88;;
58516;SDS011;44308;50.810;0.284;2022-07-23T08:00:49;11.20;;;5.20;;
58516;SDS011;44308;50.810;0.284;2022-07-23T08:03:16;13.63;;;5.95;;
58516;SDS011;44308;50.810;0.284;2022-07-23T08:05:42;23.25;;;7.70;;
58516;SDS011;44308;50.810;0.284;2022-07-23T08:08:08;8.52;;;5.10;;
58516;SDS011;44308;50.810;0.284;2022-07-23T08:10:39;6.97;;;4.55;;
58516;SDS011;44308;50.810;0.284;2022-07-23T08:13:05;13.75;;;7.05;;
58516;SDS011;44308;50.810;0.284;2022-07-23T08:15:31;25.25;;;8.15;;
58516;SDS011;44308;50.810;0.284;2022-07-23T08:17:57;22.63;;;10.73;;
58516;SDS011;44308;50.810;0.284;2022-07-23T08:20:23;8.85;;;3.80;;
58516;SDS011;44308;50.810;0.284;2022-07-23T08:22:51;10.23;;;3.38;;
58516;SDS011;44308;50.810;0.284;2022-07-23T08:25:21;9.15;;;3.75;;
58516;SDS011;44308;50.810;0.284;2022-07-23T08:30:42;10.27;;;3.83;;
58516;SDS011;44308;50.810;0.284;2022-07-23T08:33:13;7.13;;;3.17;;
58516;SDS011;44308;50.810;0.284;2022-07-23T08:35:41;4.40;;;3.00;;
58516;SDS011;44308;50.810;0.284;2022-07-23T08:38:12;7.22;;;3.15;;
58516;SDS011;44308;50.810;0.284;2022-07-23T08:40:41;11.52;;;3.38;;
58516;SDS011;44308;50.810;0.284;2022-07-23T08:43:10;11.68;;;3.40;;
58516;SDS011;44308;50.810;0.284;2022-07-23T08:45:41;6.93;;;2.95;;
58516;SDS011;44308;50.810;0.284;2022-07-23T08:51:17;11.10;;;3.75;;
58516;SDS011;44308;50.810;0.284;2022-07-23T08:53:43;20.65;;;4.07;;
58516;SDS011;44308;50.810;0.284;2022-07-23T08:56:10;4.60;;;3.35;;
58516;SDS011;44308;50.810;0.284;2022-07-23T08:58:37;16.15;;;3.92;;
58516;SDS011;44308;50.810;0.284;2022-07-23T09:01:03;9.23;;;3.63;;
58516;SDS011;44308;50.810;0.284;2022-07-23T09:03:30;7.32;;;3.38;;
58516;SDS011;44308;50.810;0.284;2022-07-23T09:05:57;6.85;;;3.15;;
58516;SDS011;44308;50.810;0.284;2022-07-23T09:08:47;7.32;;;3.60;;
58516;SDS011;44308;50.810;0.284;2022-07-23T09:11:15;7.93;;;3.25;;
58516;SDS011;44308;50.810;0.284;2022-07-23T09:13:49;9.57;;;3.40;;
58516;SDS011;44308;50.810;0.284;2022-07-23T09:16:28;5.03;;;3.38;;
58516;SDS011;44308;50.810;0.284;2022-07-23T09:19:00;5.70;;;2.90;;
58516;SDS011;44308;50.810;0.284;2022-07-23T09:21:34;10.63;;;3.35;;
58516;SDS011;44308;50.810;0.284;2022-07-23T09:24:11;7.28;;;3.35;;
58516;SDS011;44308;50.810;0.284;2022-07-23T09:26:43;6.60;;;3.28;;
58516;SDS011;44308;50.810;0.284;2022-07-23T09:29:13;10.27;;;3.20;;
58516;SDS011;44308;50.810;0.284;2022-07-23T09:37:10;7.93;;;2.83;;
58516;SDS011;44308;50.810;0.284;2022-07-23T09:39:40;6.00;;;3.30;;
58516;SDS011;44308;50.810;0.284;2022-07-23T09:42:14;13.07;;;3.55;;
58516;SDS011;44308;50.810;0.284;2022-07-23T09:44:48;12.68;;;3.58;;
58516;SDS011;44308;50.810;0.284;2022-07-23T09:47:15;6.05;;;2.88;;
58516;SDS011;44308;50.810;0.284;2022-07-23T09:50:24;9.60;;;4.07;;
58516;SDS011;44308;50.810;0.284;2022-07-23T09:52:42;7.85;;;3.03;;
58516;SDS011;44308;50.810;0.284;2022-07-23T09:55:13;9.45;;;3.50;;
58516;SDS011;44308;50.810;0.284;2022-07-23T09:57:40;4.50;;;3.10;;
58516;SDS011;44308;50.810;0.284;2022-07-23T10:00:08;11.13;;;3.22;;
58516;SDS011;44308;50.810;0.284;2022-07-23T10:02:35;11.77;;;4.03;;
58516;SDS011;44308;50.810;0.284;2022-07-23T10:05:02;5.80;;;3.10;;
58516;SDS011;44308;50.810;0.284;2022-07-23T10:07:31;12.18;;;3.75;;
58516;SDS011;44308;50.810;0.284;2022-07-23T10:09:59;17.25;;;3.70;;
58516;SDS011;44308;50.810;0.284;2022-07-23T10:12:25;6.03;;;3.13;;
58516;SDS011;44308;50.810;0.284;2022-07-23T10:14:51;6.80;;;3.38;;
58516;SDS011;44308;50.810;0.284;2022-07-23T10:17:17;10.63;;;2.83;;
58516;SDS011;44308;50.810;0.284;2022-07-23T10:19:44;6.63;;;3.15;;
58516;SDS011;44308;50.810;0.284;2022-07-23T10:22:13;6.07;;;3.00;;
58516;SDS011;44308;50.810;0.284;2022-07-23T10:35:43;5.13;;;3.00;;
58516;SDS011;44308;50.810;0.284;2022-07-23T10:38:21;10.38;;;3.97;;
58516;SDS011;44308;50.810;0.284;2022-07-23T10:40:54;9.13;;;3.67;;
58516;SDS011;44308;50.810;0.284;2022-07-23T10:43:25;19.92;;;4.03;;
58516;SDS011;44308;50.810;0.284;2022-07-23T10:45:52;7.10;;;3.30;;
58516;SDS011;44308;50.810;0.284;2022-07-23T10:48:22;10.13;;;2.83;;
58516;SDS011;44308;50.810;0.284;2022-07-23T10:51:09;41.53;;;5.25;;
58516;SDS011;44308;50.810;0.284;2022-07-23T10:59:29;5.47;;;2.63;;
58516;SDS011;44308;50.810;0.284;2022-07-23T11:02:16;6.53;;;3.00;;
58516;SDS011;44308;50.810;0.284;2022-07-23T11:07:16;8.25;;;3.20;;
58516;SDS011;44308;50.810;0.284;2022-07-23T11:09:43;11.95;;;3.78;;
58516;SDS011;44308;50.810;0.284;2022-07-23T11:17:58;10.68;;;3.88;;
58516;SDS011;44308;50.810;0.284;2022-07-23T11:20:27;40.17;;;4.22;;
58516;SDS011;44308;50.810;0.284;2022-07-23T11:23:00;13.27;;;2.97;;
58516;SDS011;44308;50.810;0.284;2022-07-23T11:25:30;11.80;;;2.60;;
58516;SDS011;44308;50.810;0.284;2022-07-23T11:28:09;7.80;;;2.90;;
58516;SDS011;44308;50.810;0.284;2022-07-23T11:30:37;8.10;;;2.67;;
58516;SDS011;44308;50.810;0.284;2022-07-23T11:35:37;12.88;;;2.78;;
58516;SDS011;44308;50.810;0.284;2022-07-23T11:38:18;6.03;;;2.80;;
58516;SDS011;44308;50.810;0.284;2022-07-23T11:40:55;11.50;;;2.92;;
58516;SDS011;44308;50.810;0.284;2022-07-23T11:45:54;5.35;;;2.53;;
58516;SDS011;44308;50.810;0.284;2022-07-23T11:48:25;5.15;;;2.70;;
58516;SDS011;44308;50.810;0.284;2022-07-23T11:50:52;14.20;;;3.15;;
58516;SDS011;44308;50.810;0.284;2022-07-23T11:53:27;10.45;;;3.00;;
58516;SDS011;44308;50.810;0.284;2022-07-23T11:56:05;4.03;;;2.42;;
58516;SDS011;44308;50.810;0.284;2022-07-23T11:58:32;7.88;;;2.90;;
58516;SDS011;44308;50.810;0.284;2022-07-23T12:00:58;6.82;;;3.38;;
58516;SDS011;44308;50.810;0.284;2022-07-23T12:03:24;7.32;;;2.90;;
58516;SDS011;44308;50.810;0.284;2022-07-23T12:05:55;12.75;;;2.97;;
58516;SDS011;44308;50.810;0.284;2022-07-23T12:08:22;16.15;;;3.03;;
58516;SDS011;44308;50.810;0.284;2022-07-23T12:10:48;38.17;;;5.10;;
58516;SDS011;44308;50.810;0.284;2022-07-23T12:13:15;8.93;;;2.95;;
58516;SDS011;44308;50.810;0.284;2022-07-23T12:15:48;11.88;;;3.28;;
58516;SDS011;44308;50.810;0.284;2022-07-23T12:18:17;7.72;;;3.17;;
58516;SDS011;44308;50.810;0.284;2022-07-23T12:20:50;6.07;;;3.38;;
58516;SDS011;44308;50.810;0.284;2022-07-23T12:23:19;7.97;;;3.67;;
58516;SDS011;44308;50.810;0.284;2022-07-23T12:25:47;13.40;;;3.63;;
58516;SDS011;44308;50.810;0.284;2022-07-23T12:28:18;7.72;;;3.50;;
58516;SDS011;44308;50.810;0.284;2022-07-23T12:30:45;30.77;;;5.35;;
58516;SDS011;44308;50.810;0.284;2022-07-23T12:33:22;9.90;;;3.75;;
58516;SDS011;44308;50.810;0.284;2022-07-23T12:35:52;7.90;;;2.80;;
58516;SDS011;44308;50.810;0.284;2022-07-23T12:38:20;8.00;;;3.05;;
58516;SDS011;44308;50.810;0.284;2022-07-23T12:45:52;6.75;;;3.00;;
58516;SDS011;44308;50.810;0.284;2022-07-23T12:48:25;5.93;;;2.75;;
58516;SDS011;44308;50.810;0.284;2022-07-23T12:51:52;5.93;;;2.75;;
58516;SDS011;44308;50.810;0.284;2022-07-23T12:53:53;5.53;;;2.30;;
58516;SDS011;44308;50.810;0.284;2022-07-23T12:56:29;5.18;;;2.83;;
58516;SDS011;44308;50.810;0.284;2022-07-23T13:01:35;7.75;;;2.70;;
58516;SDS011;44308;50.810;0.284;2022-07-23T13:04:11;11.20;;;2.35;;
58516;SDS011;44308;50.810;0.284;2022-07-23T13:09:19;5.15;;;2.60;;
58516;SDS011;44308;50.810;0.284;2022-07-23T13:11:47;12.38;;;2.40;;
58516;SDS011;44308;50.810;0.284;2022-07-23T13:14:15;17.85;;;3.75;;
58516;SDS011;44308;50.810;0.284;2022-07-23T13:16:42;5.93;;;2.45;;
58516;SDS011;44308;50.810;0.284;2022-07-23T13:19:09;17.02;;;3.40;;
58516;SDS011;44308;50.810;0.284;2022-07-23T13:21:35;10.20;;;2.58;;
58516;SDS011;44308;50.810;0.284;2022-07-23T13:24:02;10.55;;;2.75;;
58516;SDS011;44308;50.810;0.284;2022-07-23T13:26:29;16.25;;;3.70;;
58516;SDS011;44308;50.810;0.284;2022-07-23T13:28:55;6.53;;;2.95;;
58516;SDS011;44308;50.810;0.284;2022-07-23T13:31:21;6.93;;;2.75;;
58516;SDS011;44308;50.810;0.284;2022-07-23T13:33:47;13.52;;;3.95;;
58516;SDS011;44308;50.810;0.284;2022-07-23T13:36:13;16.58;;;2.65;;
58516;SDS011;44308;50.810;0.284;2022-07-23T13:38:41;11.70;;;2.70;;
58516;SDS011;44308;50.810;0.284;2022-07-23T13:41:07;6.30;;;2.72;;
58516;SDS011;44308;50.810;0.284;2022-07-23T13:43:35;5.00;;;3.00;;
58516;SDS011;44308;50.810;0.284;2022-07-23T13:46:01;18.13;;;3.08;;
58516;SDS011;44308;50.810;0.284;2022-07-23T13:48:27;20.17;;;2.97;;
58516;SDS011;44308;50.810;0.284;2022-07-23T13:50:54;6.30;;;2.30;;
58516;SDS011;44308;50.810;0.284;2022-07-23T13:53:21;5.22;;;2.45;;
58516;SDS011;44308;50.810;0.284;2022-07-23T13:55:50;4.65;;;2.40;;
58516;SDS011;44308;50.810;0.284;2022-07-23T13:58:17;7.75;;;2.80;;
58516;SDS011;44308;50.810;0.284;2022-07-23T14:00:45;7.55;;;3.25;;
58516;SDS011;44308;50.810;0.284;2022-07-23T14:03:12;6.05;;;2.65;;
58516;SDS011;44308;50.810;0.284;2022-07-23T14:05:38;5.38;;;2.55;;
58516;SDS011;44308;50.810;0.284;2022-07-23T14:08:04;5.20;;;2.55;;
58516;SDS011;44308;50.810;0.284;2022-07-23T14:10:31;7.72;;;3.28;;
58516;SDS011;44308;50.810;0.284;2022-07-23T14:12:57;7.22;;;2.55;;
58516;SDS011;44308;50.810;0.284;2022-07-23T14:15:24;10.95;;;2.67;;
58516;SDS011;44308;50.810;0.284;2022-07-23T14:17:51;3.10;;;1.98;;
58516;SDS011;44308;50.810;0.284;2022-07-23T14:20:18;2.65;;;2.17;;
58516;SDS011;44308;50.810;0.284;2022-07-23T14:22:43;8.85;;;2.53;;
58516;SDS011;44308;50.810;0.284;2022-07-23T14:25:10;9.10;;;2.75;;
58516;SDS011;44308;50.810;0.284;2022-07-23T14:27:36;6.13;;;2.65;;
58516;SDS011;44308;50.810;0.284;2022-07-23T14:30:03;3.35;;;1.90;;
58516;SDS011;44308;50.810;0.284;2022-07-23T14:32:30;3.35;;;2.00;;
58516;SDS011;44308;50.810;0.284;2022-07-23T14:34:56;6.10;;;2.17;;
58516;SDS011;44308;50.810;0.284;2022-07-23T14:37:22;5.32;;;2.35;;
58516;SDS011;44308;50.810;0.284;2022-07-23T14:39:47;7.40;;;2.80;;
58516;SDS011;44308;50.810;0.284;2022-07-23T14:42:13;5.10;;;2.90;;
58516;SDS011;44308;50.810;0.284;2022-07-23T14:44:40;3.47;;;1.92;;
58516;SDS011;44308;50.810;0.284;2022-07-23T14:47:07;4.60;;;2.20;;
58516;SDS011;44308;50.810;0.284;2022-07-23T14:49:33;2.33;;;1.77;;
58516;SDS011;44308;50.810;0.284;2022-07-23T14:51:59;2.85;;;1.65;;
58516;SDS011;44308;50.810;0.284;2022-07-23T14:54:26;7.30;;;2.38;;
58516;SDS011;44308;50.810;0.284;2022-07-23T14:56:53;3.22;;;1.50;;
58516;SDS011;44308;50.810;0.284;2022-07-23T14:59:20;4.00;;;1.90;;
58516;SDS011;44308;50.810;0.284;2022-07-23T15:01:46;3.90;;;1.80;;
58516;SDS011;44308;50.810;0.284;2022-07-23T15:04:14;6.18;;;2.00;;
58516;SDS011;44308;50.810;0.284;2022-07-23T15:06:40;3.53;;;1.50;;
58516;SDS011;44308;50.810;0.284;2022-07-23T15:09:06;8.88;;;2.10;;
58516;SDS011;44308;50.810;0.284;2022-07-23T15:11:32;6.18;;;1.92;;
58516;SDS011;44308;50.810;0.284;2022-07-23T15:14:08;4.45;;;1.67;;
58516;SDS011;44308;50.810;0.284;2022-07-23T15:16:34;2.88;;;1.58;;
58516;SDS011;44308;50.810;0.284;2022-07-23T15:19:00;3.60;;;1.50;;
58516;SDS011;44308;50.810;0.284;2022-07-23T15:21:28;3.40;;;1.50;;
58516;SDS011;44308;50.810;0.284;2022-07-23T15:23:57;3.10;;;1.75;;
58516;SDS011;44308;50.810;0.284;2022-07-23T15:26:29;4.13;;;2.10;;
58516;SDS011;44308;50.810;0.284;2022-07-23T15:28:56;8.05;;;2.67;;
58516;SDS011;44308;50.810;0.284;2022-07-23T15:31:23;2.92;;;1.63;;
58516;SDS011;44308;50.810;0.284;2022-07-23T15:33:49;3.33;;;1.58;;
58516;SDS011;44308;50.810;0.284;2022-07-23T15:36:17;6.05;;;1.00;;
58516;SDS011;44308;50.810;0.284;2022-07-23T15:38:44;1.92;;;1.08;;
58516;SDS011;44308;50.810;0.284;2022-07-23T15:41:10;4.57;;;1.67;;
58516;SDS011;44308;50.810;0.284;2022-07-23T15:43:38;5.00;;;1.13;;
58516;SDS011;44308;50.810;0.284;2022-07-23T15:46:04;8.40;;;1.90;;
58516;SDS011;44308;50.810;0.284;2022-07-23T15:48:31;3.97;;;2.08;;
58516;SDS011;44308;50.810;0.284;2022-07-23T15:51:00;1.25;;;0.88;;